createdAt,value
2023-01-04T00:01:23.181Z,3.47
2023-01-04T00:03:50.836Z,7.03
2023-01-04T00:06:19.027Z,7.20
2023-01-04T00:08:46.019Z,4.10
2023-01-04T00:11:20.115Z,6.22
2023-01-04T00:13:49.511Z,4.50
2023-01-04T00:16:20.788Z,6.93
2023-01-04T00:18:49.111Z,7.78
2023-01-04T00:21:20.715Z,9.02
2023-01-04T00:23:50.938Z,4.70
2023-01-04T00:26:22.256Z,6.75
2023-01-04T00:28:54.548Z,6.80
2023-01-04T00:31:23.739Z,5.55
2023-01-04T00:33:55.951Z,7.97
2023-01-04T00:36:24.069Z,3.15
2023-01-04T00:39:07.377Z,5.43
2023-01-04T00:41:59.126Z,4.80
2023-01-04T00:44:27.373Z,6.63
2023-01-04T00:46:54.469Z,6.10
2023-01-04T00:49:21.480Z,8.25
2023-01-04T00:51:48.453Z,4.78
2023-01-04T00:54:19.809Z,8.48
2023-01-04T00:56:47.553Z,8.80
2023-01-04T00:59:19.652Z,4.10
2023-01-04T01:01:47.948Z,7.25
2023-01-04T01:04:19.645Z,6.63
2023-01-04T01:06:47.387Z,4.70
2023-01-04T01:09:15.615Z,2.40
2023-01-04T01:11:43.574Z,5.85
2023-01-04T01:14:21.204Z,6.85
2023-01-04T01:17:03.738Z,5.28
2023-01-04T01:19:32.061Z,6.55
2023-01-04T01:21:59.422Z,5.63
2023-01-04T01:24:27.935Z,3.50
2023-01-04T01:26:55.769Z,6.22
2023-01-04T01:29:22.996Z,6.15
2023-01-04T01:31:56.075Z,5.65
2023-01-04T01:34:25.952Z,6.63
2023-01-04T01:36:53.050Z,8.88
2023-01-04T01:39:20.519Z,6.68
2023-01-04T01:41:49.068Z,6.70
2023-01-04T01:44:44.150Z,10.35
2023-01-04T01:47:19.630Z,7.07
2023-01-04T01:49:51.769Z,6.38
2023-01-04T01:52:35.108Z,9.98
2023-01-04T01:55:09.013Z,9.77
2023-01-04T01:57:38.824Z,3.50
2023-01-04T02:00:15.194Z,5.03
2023-01-04T02:03:12.998Z,5.15
2023-01-04T02:05:40.204Z,5.10
2023-01-04T02:08:13.069Z,5.90
2023-01-04T02:10:40.348Z,5.43
2023-01-04T02:13:15.620Z,6.97
2023-01-04T02:16:07.480Z,4.07
2023-01-04T02:18:59.549Z,7.70
2023-01-04T02:22:16.227Z,7.47
2023-01-04T02:25:12.463Z,8.70
2023-01-04T02:28:16.234Z,6.55
2023-01-04T02:31:17.022Z,8.55
2023-01-04T02:34:26.239Z,4.88
2023-01-04T02:37:26.615Z,5.13
2023-01-04T02:40:04.336Z,3.88
2023-01-04T02:43:05.006Z,8.23
2023-01-04T02:45:42.773Z,6.07
2023-01-04T02:48:30.135Z,5.43
2023-01-04T02:51:00.593Z,5.30
2023-01-04T02:53:37.542Z,6.60
2023-01-04T02:56:58.383Z,10.07
2023-01-04T02:59:51.891Z,3.72
2023-01-04T03:02:50.522Z,5.68
2023-01-04T03:06:16.102Z,5.20
2023-01-04T03:09:14.437Z,5.45
2023-01-04T03:12:08.336Z,5.93
2023-01-04T03:14:48.835Z,5.95
2023-01-04T03:17:21.845Z,5.15
2023-01-04T03:19:55.833Z,6.30
2023-01-04T03:23:11.640Z,4.28
2023-01-04T03:26:21.314Z,10.27
2023-01-04T03:29:09.692Z,6.07
2023-01-04T03:32:05.774Z,6.30
2023-01-04T03:35:05.650Z,5.63
2023-01-04T03:38:21.119Z,5.60
2023-01-04T03:41:28.630Z,4.20
2023-01-04T03:44:30.404Z,4.53
2023-01-04T03:47:30.367Z,8.00
2023-01-04T03:50:15.571Z,3.13
2023-01-04T03:52:54.084Z,3.85
2023-01-04T03:55:22.648Z,3.60
2023-01-04T03:57:52.454Z,2.35
2023-01-04T04:00:20.207Z,2.65
2023-01-04T04:02:50.653Z,1.73
2023-01-04T04:05:41.359Z,3.90
2023-01-04T04:08:27.812Z,2.63
2023-01-04T04:11:19.925Z,4.25
2023-01-04T04:13:48.945Z,1.98
2023-01-04T04:16:20.121Z,5.32
2023-01-04T04:18:48.173Z,4.20
2023-01-04T04:21:15.407Z,4.78
2023-01-04T04:23:43.922Z,7.30
2023-01-04T04:26:11.779Z,6.25
2023-01-04T04:28:39.578Z,9.18
2023-01-04T04:31:07.234Z,7.07
2023-01-04T04:33:34.828Z,6.15
2023-01-04T04:36:02.206Z,4.97
2023-01-04T04:38:30.739Z,10.90
2023-01-04T04:41:16.776Z,7.47
2023-01-04T04:43:43.728Z,6.43
2023-01-04T04:46:10.855Z,10.80
2023-01-04T04:48:37.882Z,12.45
2023-01-04T04:51:05.372Z,14.15
2023-01-04T04:53:32.414Z,26.98
2023-01-04T04:55:59.384Z,10.30
2023-01-04T04:58:26.614Z,9.27
2023-01-04T05:00:53.660Z,3.08
2023-01-04T05:03:20.599Z,3.05
2023-01-04T05:05:51.210Z,2.83
2023-01-04T05:08:18.342Z,1.00
2023-01-04T05:10:45.321Z,3.35
2023-01-04T05:13:13.276Z,3.05
2023-01-04T05:15:49.610Z,4.07
2023-01-04T05:18:21.117Z,2.95
2023-01-04T05:20:48.720Z,1.75
2023-01-04T05:23:18.452Z,1.30
2023-01-04T05:25:45.979Z,0.95
2023-01-04T05:28:13.126Z,2.30
2023-01-04T05:30:52.453Z,1.73
2023-01-04T05:33:32.092Z,3.13
2023-01-04T05:36:03.001Z,0.88
2023-01-04T05:38:30.554Z,1.10
2023-01-04T05:40:57.698Z,4.95
2023-01-04T05:43:25.477Z,2.42
2023-01-04T05:45:55.958Z,2.35
2023-01-04T05:48:24.965Z,1.25
2023-01-04T05:50:53.740Z,4.35
2023-01-04T05:53:20.869Z,5.40
2023-01-04T05:55:50.853Z,3.28
2023-01-04T05:58:17.883Z,4.28
2023-01-04T06:00:44.786Z,5.25
2023-01-04T06:03:11.917Z,2.33
2023-01-04T06:05:38.939Z,2.70
2023-01-04T06:08:08.170Z,1.02
2023-01-04T06:10:35.605Z,1.08
2023-01-04T06:13:02.554Z,5.65
2023-01-04T06:15:29.897Z,4.05
2023-01-04T06:17:57.355Z,3.63
2023-01-04T06:20:24.289Z,4.60
2023-01-04T06:22:51.339Z,5.75
2023-01-04T06:25:19.076Z,1.92
2023-01-04T06:27:48.002Z,1.95
2023-01-04T06:30:15.467Z,1.20
2023-01-04T06:32:43.422Z,1.48
2023-01-04T06:35:10.510Z,2.38
2023-01-04T06:37:38.135Z,2.50
2023-01-04T06:40:06.387Z,2.13
2023-01-04T06:42:45.675Z,1.42
2023-01-04T06:45:14.715Z,4.55
2023-01-04T06:47:42.526Z,2.65
2023-01-04T06:50:10.770Z,1.00
2023-01-04T06:52:37.914Z,3.17
2023-01-04T06:55:07.893Z,2.75
2023-01-04T06:57:35.002Z,3.97
2023-01-04T07:00:03.187Z,1.42
2023-01-04T07:02:31.059Z,2.67
2023-01-04T07:04:58.487Z,1.15
2023-01-04T07:07:26.789Z,4.90
2023-01-04T07:09:54.338Z,1.50
2023-01-04T07:12:21.284Z,1.35
2023-01-04T07:14:48.219Z,1.75
2023-01-04T07:17:15.173Z,1.48
2023-01-04T07:19:42.343Z,5.70
2023-01-04T07:22:09.355Z,0.50
2023-01-04T07:24:36.325Z,3.15
2023-01-04T07:27:03.774Z,2.45
2023-01-04T07:29:30.848Z,3.75
2023-01-04T07:31:57.844Z,2.70
2023-01-04T07:34:26.029Z,5.20
2023-01-04T07:36:53.101Z,2.78
2023-01-04T07:39:21.847Z,5.35
2023-01-04T07:41:49.932Z,2.50
2023-01-04T07:44:21.625Z,7.68
2023-01-04T07:46:48.738Z,3.55
2023-01-04T07:49:18.517Z,2.20
2023-01-04T07:51:47.807Z,6.50
2023-01-04T07:54:16.684Z,4.53
2023-01-04T07:56:45.692Z,3.08
2023-01-04T07:59:15.511Z,4.18
2023-01-04T08:01:42.862Z,4.00
2023-01-04T08:04:12.717Z,6.18
2023-01-04T08:06:40.789Z,4.63
2023-01-04T08:09:08.407Z,3.13
2023-01-04T08:11:35.526Z,3.60
2023-01-04T08:14:03.543Z,7.45
2023-01-04T08:16:37.806Z,6.88
2023-01-04T08:19:09.069Z,2.65
2023-01-04T08:21:37.104Z,5.55
2023-01-04T08:24:05.217Z,2.90
2023-01-04T08:26:33.154Z,3.17
2023-01-04T08:29:00.189Z,3.72
2023-01-04T08:31:31.176Z,3.47
2023-01-04T08:34:02.124Z,5.40
2023-01-04T08:36:35.160Z,7.03
2023-01-04T08:39:05.926Z,6.22
2023-01-04T08:41:59.003Z,6.32
2023-01-04T08:44:28.109Z,6.50
2023-01-04T08:46:55.700Z,7.93
2023-01-04T08:49:23.740Z,4.18
2023-01-04T08:51:50.880Z,3.90
2023-01-04T08:54:18.351Z,4.28
2023-01-04T08:56:45.406Z,2.45
2023-01-04T08:59:13.910Z,1.70
2023-01-04T09:01:41.920Z,2.60
2023-01-04T09:04:09.686Z,3.00
2023-01-04T09:06:38.549Z,3.17
2023-01-04T09:09:05.761Z,3.25
2023-01-04T09:11:32.729Z,2.72
2023-01-04T09:14:08.085Z,4.28
2023-01-04T09:16:38.012Z,5.03
2023-01-04T09:19:06.187Z,1.60
2023-01-04T09:21:33.495Z,2.85
2023-01-04T09:24:00.605Z,1.45
2023-01-04T09:26:27.571Z,0.98
2023-01-04T09:28:56.376Z,3.25
2023-01-04T09:31:26.849Z,1.17
2023-01-04T09:36:43.193Z,3.45
2023-01-04T09:39:16.859Z,6.10
2023-01-04T09:41:58.018Z,2.65
2023-01-04T09:47:46.716Z,3.58
2023-01-04T09:51:01.804Z,1.40
2023-01-04T09:53:50.607Z,2.53
2023-01-04T09:56:21.590Z,1.85
2023-01-04T09:58:50.050Z,7.55
2023-01-04T10:01:33.226Z,8.60
2023-01-04T10:04:12.923Z,7.20
2023-01-04T10:06:40.288Z,1.33
2023-01-04T10:09:13.299Z,3.95
2023-01-04T10:12:07.944Z,5.13
2023-01-04T10:15:17.478Z,4.10
2023-01-04T10:19:28.737Z,3.80
2023-01-04T10:21:51.849Z,2.47
2023-01-04T10:24:49.758Z,3.80
2023-01-04T10:27:37.824Z,3.80
2023-01-04T10:30:29.899Z,5.60
2023-01-04T10:33:25.944Z,1.70
2023-01-04T10:35:58.345Z,4.38
2023-01-04T10:38:41.080Z,3.33
2023-01-04T10:41:21.820Z,1.40
2023-01-04T10:44:11.752Z,3.40
2023-01-04T10:47:13.635Z,5.30
2023-01-04T10:49:58.049Z,2.95
2023-01-04T10:52:46.696Z,3.17
2023-01-04T10:55:29.127Z,4.30
2023-01-04T10:58:30.793Z,5.68
2023-01-04T11:01:21.330Z,1.80
2023-01-04T11:04:23.965Z,5.95
2023-01-04T11:07:35.985Z,5.40
2023-01-04T11:10:42.949Z,2.63
2023-01-04T11:13:12.039Z,2.30
2023-01-04T11:15:42.854Z,7.47
2023-01-04T11:18:14.687Z,3.15
2023-01-04T11:20:42.252Z,4.00
2023-01-04T11:23:17.076Z,3.13
2023-01-04T11:25:57.981Z,3.72
2023-01-04T11:28:42.306Z,7.05
2023-01-04T11:31:09.831Z,8.13
2023-01-04T11:33:59.529Z,5.05
2023-01-04T11:36:41.479Z,4.80
2023-01-04T11:39:19.643Z,6.45
2023-01-04T11:42:06.108Z,3.13
2023-01-04T11:44:36.677Z,5.85
2023-01-04T11:47:33.054Z,5.80
2023-01-04T11:50:01.963Z,6.65
2023-01-04T11:52:36.842Z,4.13
2023-01-04T11:55:34.008Z,6.28
2023-01-04T11:58:18.103Z,4.93
2023-01-04T12:01:03.685Z,4.07
2023-01-04T12:03:38.886Z,13.80
2023-01-04T12:06:43.780Z,7.90
2023-01-04T12:09:20.080Z,8.10
2023-01-04T12:12:01.280Z,19.55
2023-01-04T12:14:38.814Z,5.65
2023-01-04T12:17:23.584Z,3.10
2023-01-04T12:22:40.192Z,5.07
2023-01-04T12:25:35.627Z,11.02
2023-01-04T12:28:03.772Z,4.00
2023-01-04T12:30:46.708Z,11.63
2023-01-04T12:33:32.455Z,7.38
2023-01-04T12:35:59.683Z,4.75
2023-01-04T12:38:55.349Z,5.97
2023-01-04T12:42:04.685Z,4.90
2023-01-04T12:44:43.470Z,5.53
2023-01-04T12:47:38.131Z,11.98
2023-01-04T12:50:34.911Z,7.80
2023-01-04T12:55:55.912Z,9.85
2023-01-04T12:59:14.927Z,10.35
2023-01-04T13:16:34.441Z,3.03
2023-01-04T17:09:38.952Z,6.32
2023-01-04T17:43:49.412Z,4.18
2023-01-04T18:24:25.542Z,9.98
2023-01-04T18:44:41.223Z,19.48
2023-01-04T18:48:44.565Z,11.55
2023-01-04T19:16:25.437Z,15.25
2023-01-04T19:16:43.538Z,16.17
2023-01-04T19:27:47.699Z,17.23
2023-01-04T19:34:51.895Z,21.48
2023-01-04T19:37:40.664Z,17.73
2023-01-04T19:43:50.442Z,20.73
2023-01-04T19:46:18.661Z,14.75
2023-01-04T19:48:46.173Z,20.60
2023-01-04T19:51:17.433Z,23.13
2023-01-04T19:53:45.397Z,18.45
2023-01-04T19:56:14.825Z,21.80
2023-01-04T19:58:42.249Z,24.65
2023-01-04T20:01:16.415Z,19.40
2023-01-04T20:09:12.548Z,25.67
2023-01-04T20:11:40.540Z,14.98
2023-01-04T20:14:17.000Z,25.75
2023-01-04T20:16:44.378Z,24.83
2023-01-04T20:19:15.057Z,21.73
2023-01-04T20:21:45.203Z,26.13
2023-01-04T20:24:12.771Z,19.30
2023-01-04T20:26:40.419Z,28.48
2023-01-04T20:29:14.636Z,27.15
2023-01-04T20:31:45.633Z,22.05
2023-01-04T20:34:14.457Z,23.20
2023-01-04T20:36:42.936Z,23.10
2023-01-04T20:39:11.318Z,14.38
2023-01-04T20:42:01.701Z,20.13
2023-01-04T20:44:29.899Z,21.52
2023-01-04T20:46:57.046Z,17.10
2023-01-04T20:49:24.312Z,20.45
2023-01-04T20:51:55.022Z,17.83
2023-01-04T20:54:22.340Z,20.23
2023-01-04T21:02:31.018Z,26.77
2023-01-04T21:11:32.764Z,24.85
2023-01-04T21:17:56.956Z,16.90
2023-01-04T21:37:20.748Z,16.52
2023-01-04T21:46:00.893Z,15.35
2023-01-04T21:48:28.400Z,16.20
2023-01-04T21:51:00.198Z,17.77
2023-01-04T21:53:32.145Z,20.63
2023-01-04T21:56:02.150Z,20.88
2023-01-04T21:58:29.825Z,19.80
2023-01-04T22:00:58.214Z,23.95
2023-01-04T22:03:26.666Z,24.77
2023-01-04T22:05:54.469Z,24.20
2023-01-04T22:08:54.165Z,22.25
2023-01-04T22:11:48.122Z,21.58
2023-01-04T22:14:32.087Z,22.77
2023-01-04T22:17:15.739Z,25.98
2023-01-04T22:20:06.152Z,19.55
2023-01-04T22:22:43.699Z,21.50
2023-01-04T22:25:39.241Z,23.00
2023-01-04T22:28:27.725Z,18.25
2023-01-04T22:31:35.954Z,21.48
2023-01-04T22:34:12.364Z,24.95
2023-01-04T22:36:49.128Z,19.70
2023-01-04T22:39:44.609Z,24.38
2023-01-04T22:42:24.010Z,23.98
2023-01-04T22:45:13.263Z,18.33
2023-01-04T22:54:16.835Z,24.15
2023-01-04T22:56:57.313Z,18.25
2023-01-04T22:59:32.939Z,19.40
2023-01-04T23:02:11.653Z,23.23
2023-01-04T23:04:45.360Z,18.45
2023-01-04T23:07:19.895Z,22.45
2023-01-04T23:09:56.838Z,19.40
2023-01-04T23:12:29.389Z,23.70
2023-01-04T23:15:15.919Z,24.33
2023-01-04T23:17:43.516Z,22.88
2023-01-04T23:20:12.248Z,21.13
2023-01-04T23:22:41.801Z,26.45
2023-01-04T23:25:09.044Z,16.90
2023-01-04T23:27:36.105Z,25.27
2023-01-04T23:30:03.454Z,24.13
2023-01-04T23:32:31.944Z,23.55
2023-01-04T23:34:59.159Z,22.23
2023-01-04T23:37:26.342Z,18.05
2023-01-04T23:39:53.670Z,19.35
2023-01-04T23:42:21.471Z,23.50
2023-01-04T23:44:58.344Z,17.50
2023-01-04T23:47:25.566Z,30.20
2023-01-04T23:49:52.949Z,16.25
2023-01-04T23:52:20.413Z,22.23
2023-01-04T23:54:48.764Z,20.00
2023-01-04T23:57:19.021Z,16.58
2023-01-04T23:59:46.255Z,18.83
